Time;durP1;ratioP1;P1;durP2;ratioP2;P2;SDS_P1;SDS_P2;PMS_P1;PMS_P2;Temp;Humidity;BMP_temperature;BMP_pressure;BME280_temperature;BME280_humidity;BME280_pressure;Samples;Min_cycle;Max_cycle;Signal;HPM_P1;HPM_P2
2024/01/15 00:02:08;;;;;;;9.57;1.17;;;;;;;;;;5049942;28;20040;-67
2024/01/15 00:04:40;;;;;;;5.72;1.10;;;;;;;;;;5049231;28;20036;-67
2024/01/15 00:07:06;;;;;;;5.05;1.10;;;;;;;;;;5049977;28;20045;-68
2024/01/15 00:09:32;;;;;;;1.90;0.80;;;;;;;;;;5050050;28;20044;-69
2024/01/15 00:11:57;;;;;;;5.97;1.10;;;;;;;;;;5049790;28;20039;-69
2024/01/15 00:14:23;;;;;;;2.28;0.95;;;;;;;;;;5049467;28;20060;-66
2024/01/15 00:16:50;;;;;;;3.28;0.77;;;;;;;;;;5050057;28;20063;-68
2024/01/15 00:19:16;;;;;;;3.78;0.80;;;;;;;;;;5048223;28;20044;-68
2024/01/15 00:21:42;;;;;;;3.97;1.10;;;;;;;;;;5050080;28;20048;-69
2024/01/15 00:24:07;;;;;;;2.70;0.88;;;;;;;;;;5049983;28;20349;-71
2024/01/15 00:26:32;;;;;;;3.35;1.02;;;;;;;;;;5049823;28;20033;-69
2024/01/15 00:28:58;;;;;;;3.20;1.00;;;;;;;;;;5057780;28;20037;-69
2024/01/15 00:31:23;;;;;;;2.92;1.08;;;;;;;;;;5049537;28;20032;-68
2024/01/15 00:33:49;;;;;;;2.05;0.88;;;;;;;;;;5049986;28;20058;-69
2024/01/15 00:36:14;;;;;;;3.17;1.30;;;;;;;;;;5049661;28;20072;-68
2024/01/15 00:38:40;;;;;;;5.05;1.00;;;;;;;;;;5049747;28;20021;-67
2024/01/15 00:41:05;;;;;;;1.73;0.93;;;;;;;;;;5049833;28;20033;-68
2024/01/15 00:43:30;;;;;;;4.00;1.10;;;;;;;;;;5049747;28;20385;-67
2024/01/15 00:45:56;;;;;;;1.77;1.02;;;;;;;;;;5049777;28;20518;-68
2024/01/15 00:48:21;;;;;;;4.78;1.00;;;;;;;;;;5049880;28;20037;-68
2024/01/15 00:50:47;;;;;;;1.70;0.88;;;;;;;;;;5048319;28;20186;-68
2024/01/15 00:53:12;;;;;;;3.92;1.20;;;;;;;;;;5049825;28;20029;-68
2024/01/15 00:55:37;;;;;;;2.17;0.85;;;;;;;;;;5048532;28;20512;-68
2024/01/15 00:58:03;;;;;;;2.10;1.00;;;;;;;;;;5049607;28;20045;-67
2024/01/15 01:00:29;;;;;;;5.10;1.02;;;;;;;;;;5049760;28;20037;-67
2024/01/15 01:02:54;;;;;;;2.42;0.95;;;;;;;;;;5047900;28;20048;-68
2024/01/15 01:05:19;;;;;;;1.83;0.88;;;;;;;;;;5044498;28;20060;-68
2024/01/15 01:07:45;;;;;;;4.85;1.08;;;;;;;;;;5048362;28;20448;-68
2024/01/15 01:10:10;;;;;;;3.58;1.10;;;;;;;;;;5048069;28;20124;-68
2024/01/15 01:12:36;;;;;;;2.35;1.00;;;;;;;;;;5049457;28;20108;-68
2024/01/15 01:15:01;;;;;;;2.40;1.38;;;;;;;;;;5048939;28;20033;-69
2024/01/15 01:17:28;;;;;;;2.63;1.17;;;;;;;;;;5047864;28;20045;-67
2024/01/15 01:19:53;;;;;;;3.90;1.20;;;;;;;;;;5048890;28;20128;-67
2024/01/15 01:22:18;;;;;;;1.63;0.88;;;;;;;;;;5049650;28;20124;-67
2024/01/15 01:24:44;;;;;;;0.77;0.60;;;;;;;;;;5051038;28;20061;-68
2024/01/15 01:27:09;;;;;;;4.15;1.38;;;;;;;;;;5052961;28;20048;-67
2024/01/15 01:29:35;;;;;;;1.75;0.90;;;;;;;;;;5053275;28;20029;-68
2024/01/15 01:32:00;;;;;;;3.70;1.73;;;;;;;;;;5052917;28;20390;-67
2024/01/15 01:34:25;;;;;;;3.33;1.50;;;;;;;;;;5052411;28;20094;-68
2024/01/15 01:36:51;;;;;;;5.50;1.20;;;;;;;;;;5051546;28;20067;-67
2024/01/15 01:39:16;;;;;;;3.95;1.50;;;;;;;;;;5052958;28;20033;-68
2024/01/15 01:41:41;;;;;;;4.30;1.15;;;;;;;;;;5052923;28;20045;-68
2024/01/15 01:44:07;;;;;;;4.63;1.10;;;;;;;;;;5052783;28;20033;-67
2024/01/15 01:46:33;;;;;;;1.85;0.90;;;;;;;;;;5083944;28;20223;-68
2024/01/15 01:49:01;;;;;;;8.20;1.40;;;;;;;;;;5052772;28;20037;-69
2024/01/15 01:51:26;;;;;;;10.88;1.40;;;;;;;;;;5051148;28;20349;-68
2024/01/15 01:53:52;;;;;;;5.68;1.20;;;;;;;;;;5048373;28;20091;-68
2024/01/15 01:56:18;;;;;;;3.95;1.50;;;;;;;;;;5052188;28;20445;-67
2024/01/15 01:58:44;;;;;;;3.20;1.25;;;;;;;;;;5049830;28;20040;-68
2024/01/15 02:01:09;;;;;;;1.88;1.02;;;;;;;;;;5052266;28;20055;-68
2024/01/15 02:03:35;;;;;;;5.07;1.10;;;;;;;;;;5050880;28;20037;-67
2024/01/15 02:06:00;;;;;;;6.53;1.25;;;;;;;;;;5050797;28;20032;-68
2024/01/15 02:08:26;;;;;;;2.47;1.05;;;;;;;;;;5051485;28;20623;-67
2024/01/15 02:10:52;;;;;;;4.07;1.20;;;;;;;;;;5052150;28;20581;-67
2024/01/15 02:13:18;;;;;;;2.47;1.02;;;;;;;;;;5052217;28;20510;-68
2024/01/15 02:15:43;;;;;;;3.47;0.88;;;;;;;;;;5051031;28;20501;-68
2024/01/15 02:18:08;;;;;;;4.18;1.02;;;;;;;;;;5050480;28;20102;-68
2024/01/15 02:20:34;;;;;;;2.63;0.95;;;;;;;;;;5051832;28;20065;-67
2024/01/15 02:23:15;;;;;;;3.10;1.20;;;;;;;;;;5051015;28;20443;-68
2024/01/15 02:25:45;;;;;;;4.50;1.15;;;;;;;;;;5051917;28;20119;-67
2024/01/15 02:28:12;;;;;;;3.78;1.27;;;;;;;;;;5051945;28;20401;-68
2024/01/15 02:30:41;;;;;;;1.83;1.00;;;;;;;;;;5051774;28;20350;-68
2024/01/15 02:33:07;;;;;;;5.93;1.00;;;;;;;;;;5051563;28;20800;-69
2024/01/15 02:35:33;;;;;;;2.28;1.08;;;;;;;;;;5050838;28;20489;-68
2024/01/15 02:37:58;;;;;;;2.20;1.02;;;;;;;;;;5050737;28;20055;-67
2024/01/15 02:40:24;;;;;;;2.13;0.80;;;;;;;;;;5051533;28;20115;-67
2024/01/15 02:42:49;;;;;;;1.88;0.98;;;;;;;;;;5051370;28;20037;-68
2024/01/15 02:45:14;;;;;;;1.58;1.00;;;;;;;;;;5049854;28;20052;-68
2024/01/15 02:47:40;;;;;;;2.67;0.80;;;;;;;;;;5051960;28;20036;-67
2024/01/15 02:50:05;;;;;;;4.60;1.05;;;;;;;;;;5050997;28;20052;-67
2024/01/15 02:52:31;;;;;;;1.58;0.80;;;;;;;;;;5050544;28;20021;-66
2024/01/15 02:54:56;;;;;;;2.72;1.05;;;;;;;;;;5051308;28;20524;-68
2024/01/15 02:57:21;;;;;;;2.65;0.98;;;;;;;;;;5050048;28;20735;-67
2024/01/15 02:59:47;;;;;;;5.20;0.98;;;;;;;;;;5047501;28;20083;-68
2024/01/15 03:02:12;;;;;;;1.45;0.70;;;;;;;;;;5051011;28;20094;-67
2024/01/15 03:04:37;;;;;;;7.47;1.23;;;;;;;;;;5050292;28;20041;-68
2024/01/15 03:07:03;;;;;;;7.43;1.17;;;;;;;;;;5051320;28;20025;-68
2024/01/15 03:09:28;;;;;;;7.30;1.48;;;;;;;;;;5050961;28;20045;-68
2024/01/15 03:11:53;;;;;;;2.03;0.98;;;;;;;;;;5051129;28;20164;-68
2024/01/15 03:14:20;;;;;;;1.27;0.80;;;;;;;;;;5051001;28;20031;-68
2024/01/15 03:16:45;;;;;;;5.75;0.82;;;;;;;;;;5051120;28;20075;-67
2024/01/15 03:19:11;;;;;;;2.65;1.00;;;;;;;;;;5082945;28;20076;-68
2024/01/15 03:21:36;;;;;;;5.85;0.82;;;;;;;;;;5050760;28;20036;-68
2024/01/15 03:24:01;;;;;;;5.07;0.82;;;;;;;;;;5051071;28;20607;-67
2024/01/15 03:26:27;;;;;;;1.48;0.80;;;;;;;;;;5050657;28;20040;-67
2024/01/15 03:28:52;;;;;;;2.65;0.90;;;;;;;;;;5049419;28;20036;-67
2024/01/15 03:31:17;;;;;;;1.70;0.80;;;;;;;;;;5050807;28;20183;-68
2024/01/15 03:33:43;;;;;;;2.17;0.90;;;;;;;;;;5050518;28;20078;-68
2024/01/15 03:36:09;;;;;;;3.72;1.08;;;;;;;;;;5049177;28;20061;-67
2024/01/15 03:38:34;;;;;;;4.90;1.10;;;;;;;;;;5083208;28;20044;-68
2024/01/15 03:41:00;;;;;;;2.35;1.00;;;;;;;;;;5050319;28;20455;-67
2024/01/15 03:43:26;;;;;;;1.77;0.90;;;;;;;;;;5048976;28;20520;-67
2024/01/15 03:45:52;;;;;;;3.30;1.08;;;;;;;;;;5049004;28;20470;-68
2024/01/15 03:48:17;;;;;;;1.40;0.70;;;;;;;;;;5049502;28;20041;-67
2024/01/15 03:50:42;;;;;;;0.88;0.52;;;;;;;;;;5050066;28;20041;-68
2024/01/15 03:53:07;;;;;;;1.65;0.65;;;;;;;;;;5050673;28;20041;-67
2024/01/15 03:55:33;;;;;;;3.67;0.70;;;;;;;;;;5049968;28;20395;-67
2024/01/15 03:57:58;;;;;;;1.40;0.77;;;;;;;;;;5050160;28;20658;-67
2024/01/15 04:00:24;;;;;;;6.28;0.90;;;;;;;;;;5050138;28;20083;-68
2024/01/15 04:02:49;;;;;;;2.03;1.05;;;;;;;;;;5049091;28;20028;-67
2024/01/15 04:05:14;;;;;;;1.40;0.68;;;;;;;;;;5049680;28;20076;-67
2024/01/15 04:07:40;;;;;;;5.05;1.02;;;;;;;;;;5050190;28;20104;-68
2024/01/15 04:10:05;;;;;;;0.68;0.50;;;;;;;;;;5049839;28;20047;-67
2024/01/15 04:12:31;;;;;;;4.20;0.93;;;;;;;;;;5050358;28;20044;-69
2024/01/15 04:14:56;;;;;;;2.25;0.90;;;;;;;;;;5049749;28;20423;-67
2024/01/15 04:17:21;;;;;;;1.08;0.70;;;;;;;;;;5050267;28;20065;-67
2024/01/15 04:19:48;;;;;;;1.52;0.55;;;;;;;;;;5049106;28;20029;-68
2024/01/15 04:22:13;;;;;;;1.08;0.55;;;;;;;;;;5048133;28;20040;-67
2024/01/15 04:24:38;;;;;;;0.85;0.43;;;;;;;;;;5048504;28;20041;-67
2024/01/15 04:27:04;;;;;;;1.70;0.73;;;;;;;;;;5050526;28;20090;-68
2024/01/15 04:29:29;;;;;;;1.40;0.60;;;;;;;;;;5049653;28;20036;-67
2024/01/15 04:31:55;;;;;;;0.38;0.35;;;;;;;;;;5050295;28;20041;-67
2024/01/15 04:34:20;;;;;;;1.67;0.68;;;;;;;;;;5049500;28;20033;-67
2024/01/15 04:36:45;;;;;;;0.70;0.70;;;;;;;;;;5049832;28;20103;-68
2024/01/15 04:39:11;;;;;;;1.48;0.50;;;;;;;;;;5049803;28;20041;-69
2024/01/15 04:41:37;;;;;;;5.43;1.00;;;;;;;;;;5049668;28;20091;-68
2024/01/15 04:44:02;;;;;;;2.15;0.50;;;;;;;;;;5049579;28;20037;-68
2024/01/15 04:46:28;;;;;;;5.80;0.90;;;;;;;;;;5049401;28;20170;-67
2024/01/15 04:48:53;;;;;;;1.58;1.02;;;;;;;;;;5049732;28;20083;-68
2024/01/15 04:51:18;;;;;;;0.85;0.50;;;;;;;;;;5049500;28;20631;-67
2024/01/15 04:53:44;;;;;;;1.25;0.52;;;;;;;;;;5049936;28;20537;-67
2024/01/15 04:56:09;;;;;;;9.35;0.93;;;;;;;;;;5048299;28;20505;-67
2024/01/15 04:58:34;;;;;;;6.75;0.82;;;;;;;;;;5049023;28;20052;-68
2024/01/15 05:01:00;;;;;;;2.20;0.60;;;;;;;;;;5053426;28;20111;-67
2024/01/15 05:03:25;;;;;;;5.78;0.88;;;;;;;;;;5053880;28;20057;-67
2024/01/15 05:05:51;;;;;;;0.35;0.30;;;;;;;;;;5052949;28;20037;-67
2024/01/15 05:08:16;;;;;;;8.13;1.00;;;;;;;;;;5053614;28;20427;-67
2024/01/15 05:10:41;;;;;;;0.43;0.43;;;;;;;;;;5053222;28;20029;-67
2024/01/15 05:13:07;;;;;;;0.90;0.50;;;;;;;;;;5053416;28;20045;-68
2024/01/15 05:15:32;;;;;;;0.30;0.30;;;;;;;;;;5052924;28;20045;-68
2024/01/15 05:17:57;;;;;;;1.52;0.77;;;;;;;;;;5053386;28;20079;-68
2024/01/15 05:20:23;;;;;;;3.97;0.85;;;;;;;;;;5052973;28;20366;-67
2024/01/15 05:22:48;;;;;;;0.52;0.50;;;;;;;;;;5053406;28;20039;-67
2024/01/15 05:25:13;;;;;;;5.53;1.02;;;;;;;;;;5047689;28;20040;-70
2024/01/15 05:27:39;;;;;;;2.97;1.05;;;;;;;;;;5052043;28;20094;-69
2024/01/15 05:30:04;;;;;;;0.35;0.30;;;;;;;;;;5052047;28;20041;-68
2024/01/15 05:32:30;;;;;;;0.30;0.30;;;;;;;;;;5053345;28;20083;-68
2024/01/15 05:34:55;;;;;;;0.68;0.45;;;;;;;;;;5052084;28;20045;-68
2024/01/15 05:37:21;;;;;;;3.10;1.17;;;;;;;;;;5053022;28;20079;-68
2024/01/15 05:39:46;;;;;;;1.98;0.88;;;;;;;;;;5052668;28;20024;-66
2024/01/15 05:42:11;;;;;;;1.23;0.80;;;;;;;;;;5052702;28;20041;-69
2024/01/15 05:44:37;;;;;;;1.02;0.68;;;;;;;;;;5052330;28;20527;-68
2024/01/15 05:47:03;;;;;;;7.55;1.02;;;;;;;;;;5085302;28;20112;-67
2024/01/15 05:49:29;;;;;;;3.00;0.70;;;;;;;;;;5052703;28;20045;-68
2024/01/15 05:51:54;;;;;;;4.28;0.70;;;;;;;;;;5052680;28;20102;-68
2024/01/15 05:54:20;;;;;;;1.05;0.60;;;;;;;;;;5052511;28;20024;-68
2024/01/15 05:56:45;;;;;;;1.23;0.75;;;;;;;;;;5052388;28;20049;-68
2024/01/15 05:59:10;;;;;;;1.25;0.65;;;;;;;;;;5052258;28;20036;-68
2024/01/15 06:01:36;;;;;;;0.88;0.45;;;;;;;;;;5052376;28;20109;-67
2024/01/15 06:04:01;;;;;;;3.75;0.73;;;;;;;;;;5050792;28;20052;-67
2024/01/15 06:06:27;;;;;;;1.08;0.50;;;;;;;;;;5051727;28;20037;-68
2024/01/15 06:08:53;;;;;;;0.57;0.47;;;;;;;;;;5052334;28;20032;-68
2024/01/15 06:11:18;;;;;;;1.02;0.57;;;;;;;;;;5051339;28;20049;-68
2024/01/15 06:13:43;;;;;;;0.75;0.50;;;;;;;;;;5052227;28;20029;-68
2024/01/15 06:16:20;;;;;;;0.52;0.40;;;;;;;;;;5051964;28;20033;-68
2024/01/15 06:18:45;;;;;;;1.70;0.73;;;;;;;;;;5051938;28;20041;-68
2024/01/15 06:21:12;;;;;;;0.82;0.60;;;;;;;;;;5051795;28;20539;-68
2024/01/15 06:23:38;;;;;;;0.40;0.40;;;;;;;;;;5049433;28;20034;-68
2024/01/15 06:26:03;;;;;;;0.60;0.50;;;;;;;;;;5050535;28;20037;-68
2024/01/15 06:28:29;;;;;;;0.50;0.50;;;;;;;;;;5051867;28;20052;-67
2024/01/15 06:30:54;;;;;;;0.35;0.35;;;;;;;;;;5050560;28;20089;-67
2024/01/15 06:33:20;;;;;;;0.95;0.50;;;;;;;;;;5052001;28;20037;-68
2024/01/15 06:35:45;;;;;;;0.30;0.30;;;;;;;;;;5051360;28;20040;-68
2024/01/15 06:38:10;;;;;;;0.30;0.30;;;;;;;;;;5050322;28;20104;-67
2024/01/15 06:40:35;;;;;;;1.42;0.50;;;;;;;;;;5051603;28;20102;-68
2024/01/15 06:43:01;;;;;;;14.70;1.05;;;;;;;;;;5084207;28;20045;-67
2024/01/15 06:45:26;;;;;;;0.30;0.30;;;;;;;;;;5050038;28;20078;-68
2024/01/15 06:47:51;;;;;;;1.00;0.55;;;;;;;;;;5083982;28;20032;-68
2024/01/15 06:50:17;;;;;;;4.75;0.60;;;;;;;;;;5051143;28;20437;-67
2024/01/15 06:52:42;;;;;;;2.45;0.70;;;;;;;;;;5051560;28;20028;-67
2024/01/15 06:55:08;;;;;;;2.45;0.63;;;;;;;;;;5051077;28;20052;-68
2024/01/15 06:57:33;;;;;;;0.60;0.43;;;;;;;;;;5051722;28;20052;-67
2024/01/15 06:59:58;;;;;;;1.67;1.02;;;;;;;;;;5050416;28;20028;-68
2024/01/15 07:02:24;;;;;;;5.93;0.70;;;;;;;;;;5051301;28;20033;-68
2024/01/15 07:04:49;;;;;;;2.28;0.52;;;;;;;;;;5051012;28;20040;-67
2024/01/15 07:07:14;;;;;;;0.80;0.47;;;;;;;;;;5050936;28;20032;-68
2024/01/15 07:09:40;;;;;;;0.30;0.30;;;;;;;;;;5051059;28;20029;-67
2024/01/15 07:12:06;;;;;;;0.30;0.30;;;;;;;;;;5051367;28;20045;-67
2024/01/15 07:14:31;;;;;;;6.82;1.02;;;;;;;;;;5050933;28;20032;-68
2024/01/15 07:16:57;;;;;;;1.48;0.50;;;;;;;;;;5051467;28;20063;-67
2024/01/15 07:19:22;;;;;;;2.28;1.25;;;;;;;;;;5050439;28;20041;-69
2024/01/15 07:21:47;;;;;;;0.38;0.38;;;;;;;;;;5050805;28;20060;-68
2024/01/15 07:24:13;;;;;;;0.30;0.30;;;;;;;;;;5050965;28;20033;-68
2024/01/15 07:26:38;;;;;;;0.65;0.60;;;;;;;;;;5049836;28;20075;-67
2024/01/15 07:29:04;;;;;;;0.20;0.20;;;;;;;;;;5051008;28;20744;-68
2024/01/15 07:31:29;;;;;;;0.60;0.50;;;;;;;;;;5050310;28;20029;-69
2024/01/15 07:33:55;;;;;;;6.18;0.80;;;;;;;;;;5050796;28;20114;-68
2024/01/15 07:36:20;;;;;;;0.82;0.55;;;;;;;;;;5049698;28;20057;-67
2024/01/15 07:38:46;;;;;;;2.97;0.80;;;;;;;;;;5047518;28;20069;-67
2024/01/15 07:41:13;;;;;;;0.40;0.40;;;;;;;;;;5050284;28;20469;-66
2024/01/15 07:43:38;;;;;;;0.75;0.50;;;;;;;;;;5050726;28;20475;-67
2024/01/15 07:46:04;;;;;;;4.75;1.17;;;;;;;;;;5050008;28;20133;-68
2024/01/15 07:48:29;;;;;;;2.53;0.63;;;;;;;;;;5050340;28;20415;-67
2024/01/15 07:50:54;;;;;;;1.90;0.85;;;;;;;;;;5049841;28;20566;-68
2024/01/15 07:53:20;;;;;;;1.08;0.80;;;;;;;;;;5050622;28;20071;-67
2024/01/15 07:55:46;;;;;;;2.28;0.82;;;;;;;;;;5050454;28;20369;-68
2024/01/15 07:58:11;;;;;;;1.60;1.48;;;;;;;;;;5050434;28;20511;-67
2024/01/15 08:00:36;;;;;;;3.88;0.95;;;;;;;;;;5049556;28;20032;-68
2024/01/15 08:03:02;;;;;;;6.88;1.73;;;;;;;;;;5049014;28;20431;-68
2024/01/15 08:05:28;;;;;;;1.90;0.85;;;;;;;;;;5049835;28;20025;-67
2024/01/15 08:07:53;;;;;;;2.45;1.63;;;;;;;;;;5049628;28;20037;-67
2024/01/15 08:10:18;;;;;;;3.72;0.85;;;;;;;;;;5049825;28;20033;-69
2024/01/15 08:12:44;;;;;;;3.47;0.88;;;;;;;;;;5050184;28;20032;-67
2024/01/15 08:15:09;;;;;;;4.78;1.23;;;;;;;;;;5048425;28;20041;-68
2024/01/15 08:17:35;;;;;;;2.63;0.98;;;;;;;;;;5049939;28;20041;-68
2024/01/15 08:20:01;;;;;;;1.33;0.85;;;;;;;;;;5050150;28;20037;-68
2024/01/15 08:22:26;;;;;;;2.92;1.15;;;;;;;;;;5049901;28;20115;-68
2024/01/15 08:24:52;;;;;;;3.72;1.35;;;;;;;;;;5049755;28;20127;-68
2024/01/15 08:27:17;;;;;;;1.10;0.80;;;;;;;;;;5050070;28;20033;-68
2024/01/15 08:29:42;;;;;;;3.38;1.50;;;;;;;;;;5050117;28;20041;-69
2024/01/15 08:32:13;;;;;;;3.03;1.02;;;;;;;;;;5049208;28;20037;-66
2024/01/15 08:34:39;;;;;;;7.25;2.03;;;;;;;;;;5051717;28;20025;-67
2024/01/15 08:37:04;;;;;;;4.57;1.30;;;;;;;;;;5053676;28;20047;-68
2024/01/15 08:39:29;;;;;;;2.10;1.00;;;;;;;;;;5053756;28;20041;-67
2024/01/15 08:41:54;;;;;;;2.20;1.13;;;;;;;;;;5053529;28;20097;-68
2024/01/15 08:44:20;;;;;;;2.95;1.05;;;;;;;;;;5052557;28;20392;-67
2024/01/15 08:46:45;;;;;;;1.67;1.20;;;;;;;;;;5053066;28;20481;-68
2024/01/15 08:49:10;;;;;;;3.10;0.90;;;;;;;;;;5053157;28;20072;-68
2024/01/15 08:51:36;;;;;;;6.05;1.02;;;;;;;;;;5051956;28;20040;-68
2024/01/15 08:54:01;;;;;;;3.15;0.75;;;;;;;;;;5053552;28;20067;-68
2024/01/15 08:56:27;;;;;;;1.13;0.70;;;;;;;;;;5053599;28;20128;-67
2024/01/15 08:58:52;;;;;;;5.13;0.93;;;;;;;;;;5053430;28;20105;-68
2024/01/15 09:01:19;;;;;;;2.08;0.80;;;;;;;;;;5053638;28;20486;-67
2024/01/15 09:03:44;;;;;;;0.88;0.70;;;;;;;;;;5053586;28;20028;-66
2024/01/15 09:06:10;;;;;;;10.40;1.40;;;;;;;;;;5051942;28;20033;-66
2024/01/15 09:08:36;;;;;;;2.17;0.95;;;;;;;;;;5053103;28;20438;-67
2024/01/15 09:11:02;;;;;;;2.38;1.15;;;;;;;;;;5052604;28;20037;-68
2024/01/15 09:13:28;;;;;;;4.05;1.42;;;;;;;;;;5085184;28;20037;-67
2024/01/15 09:15:53;;;;;;;5.45;1.00;;;;;;;;;;5052149;28;20468;-67
2024/01/15 09:18:18;;;;;;;9.85;1.67;;;;;;;;;;5052238;28;20109;-68
2024/01/15 09:20:44;;;;;;;4.07;1.40;;;;;;;;;;5051418;28;20029;-68
2024/01/15 09:23:09;;;;;;;3.53;1.52;;;;;;;;;;5052917;28;20476;-67
2024/01/15 09:25:34;;;;;;;3.17;1.30;;;;;;;;;;5042304;28;20043;-69
2024/01/15 09:28:00;;;;;;;5.28;1.92;;;;;;;;;;5052307;28;20033;-68
2024/01/15 09:30:25;;;;;;;4.68;2.15;;;;;;;;;;5051983;28;20044;-69
2024/01/15 09:32:50;;;;;;;8.65;1.98;;;;;;;;;;5052052;28;20089;-67
2024/01/15 09:35:16;;;;;;;4.78;2.20;;;;;;;;;;5052912;28;20087;-67
2024/01/15 09:37:42;;;;;;;13.75;3.03;;;;;;;;;;5052147;28;20056;-67
2024/01/15 09:40:08;;;;;;;10.70;2.95;;;;;;;;;;5051779;28;20032;-69
2024/01/15 09:42:35;;;;;;;7.03;2.92;;;;;;;;;;5050877;28;20029;-68
2024/01/15 09:45:01;;;;;;;8.32;2.60;;;;;;;;;;5048388;28;20029;-70
2024/01/15 09:47:26;;;;;;;7.20;2.65;;;;;;;;;;5081457;28;20086;-67
2024/01/15 09:49:51;;;;;;;6.70;2.10;;;;;;;;;;5052337;28;20087;-67
2024/01/15 09:52:19;;;;;;;12.75;2.80;;;;;;;;;;5052055;28;20040;-67
2024/01/15 09:54:45;;;;;;;8.07;3.00;;;;;;;;;;5051744;28;20063;-68
2024/01/15 09:57:11;;;;;;;10.15;2.90;;;;;;;;;;5050478;28;20517;-68
2024/01/15 09:59:37;;;;;;;13.38;4.32;;;;;;;;;;5051141;28;20041;-68
2024/01/15 10:02:03;;;;;;;9.65;3.30;;;;;;;;;;5031695;28;20425;-67
2024/01/15 10:04:28;;;;;;;10.45;3.28;;;;;;;;;;5048041;28;20102;-67
2024/01/15 10:06:54;;;;;;;6.18;3.00;;;;;;;;;;5052385;28;20709;-67
2024/01/15 10:09:19;;;;;;;9.13;2.70;;;;;;;;;;5049016;28;20039;-67
2024/01/15 10:11:45;;;;;;;8.00;2.75;;;;;;;;;;5052179;28;20037;-68
2024/01/15 10:14:13;;;;;;;5.90;2.83;;;;;;;;;;5052391;28;20052;-67
2024/01/15 10:16:39;;;;;;;7.35;3.25;;;;;;;;;;5051251;28;20384;-67
2024/01/15 10:19:05;;;;;;;10.38;2.83;;;;;;;;;;5052373;28;20045;-67
2024/01/15 10:21:34;;;;;;;8.05;2.28;;;;;;;;;;5047942;28;20044;-67
2024/01/15 10:24:00;;;;;;;6.75;2.10;;;;;;;;;;5084369;28;20037;-68
2024/01/15 10:26:26;;;;;;;4.38;1.70;;;;;;;;;;5050671;28;20098;-67
2024/01/15 10:28:54;;;;;;;3.05;1.35;;;;;;;;;;5051945;28;20051;-67
2024/01/15 10:31:21;;;;;;;3.70;1.50;;;;;;;;;;5051745;28;20477;-68
2024/01/15 10:33:49;;;;;;;6.15;1.70;;;;;;;;;;5083851;28;20115;-67
2024/01/15 10:36:17;;;;;;;6.15;2.38;;;;;;;;;;5051809;28;20041;-67
2024/01/15 10:38:46;;;;;;;3.15;1.25;;;;;;;;;;5044092;28;20017;-67
2024/01/15 10:41:11;;;;;;;1.23;0.70;;;;;;;;;;5051371;28;20139;-68
2024/01/15 10:43:37;;;;;;;2.92;0.98;;;;;;;;;;5047501;28;20417;-69
2024/01/15 10:46:04;;;;;;;1.48;0.90;;;;;;;;;;5047510;28;20033;-67
2024/01/15 10:48:31;;;;;;;1.70;0.68;;;;;;;;;;5050720;28;20033;-67
2024/01/15 10:50:59;;;;;;;4.45;0.82;;;;;;;;;;5049996;28;20067;-68
2024/01/15 10:53:26;;;;;;;0.88;0.70;;;;;;;;;;5051084;28;20029;-68
2024/01/15 10:55:51;;;;;;;1.45;0.65;;;;;;;;;;5051490;28;20033;-67
2024/01/15 10:58:18;;;;;;;1.35;0.75;;;;;;;;;;5050226;28;20045;-68
2024/01/15 11:00:43;;;;;;;1.33;0.70;;;;;;;;;;5051349;28;20028;-67
2024/01/15 11:03:09;;;;;;;3.03;0.65;;;;;;;;;;5061293;28;20041;-68
2024/01/15 11:05:38;;;;;;;2.20;0.60;;;;;;;;;;5036863;28;20036;-66
2024/01/15 11:08:06;;;;;;;4.20;1.00;;;;;;;;;;5044845;28;20028;-68
2024/01/15 11:10:52;;;;;;;1.17;0.55;;;;;;;;;;5078889;28;20037;-67
2024/01/15 11:13:32;;;;;;;1.38;0.60;;;;;;;;;;5045977;28;20047;-67
2024/01/15 11:16:02;;;;;;;4.47;0.90;;;;;;;;;;5045934;28;20649;-66
2024/01/15 11:18:30;;;;;;;4.63;0.70;;;;;;;;;;5043700;28;20481;-68
2024/01/15 11:21:07;;;;;;;1.90;0.68;;;;;;;;;;5046597;28;20064;-68
2024/01/15 11:23:52;;;;;;;1.65;1.05;;;;;;;;;;5045326;28;20045;-67
2024/01/15 11:26:30;;;;;;;3.67;0.90;;;;;;;;;;5044674;28;20292;-67
2024/01/15 11:28:57;;;;;;;1.20;0.98;;;;;;;;;;5046412;28;20119;-68
2024/01/15 11:31:40;;;;;;;3.13;0.80;;;;;;;;;;5040549;28;20033;-67
2024/01/15 11:34:06;;;;;;;1.73;0.52;;;;;;;;;;5043012;28;20328;-67
2024/01/15 11:36:50;;;;;;;4.70;0.85;;;;;;;;;;5044967;28;20090;-67
2024/01/15 11:39:28;;;;;;;4.10;1.08;;;;;;;;;;5045398;28;20091;-67
2024/01/15 11:42:03;;;;;;;0.88;0.55;;;;;;;;;;5046175;28;20044;-68
2024/01/15 11:44:29;;;;;;;2.20;0.77;;;;;;;;;;5042169;28;20214;-66
2024/01/15 11:46:54;;;;;;;4.13;0.82;;;;;;;;;;5045179;28;20021;-66
2024/01/15 11:49:46;;;;;;;1.02;0.50;;;;;;;;;;5045729;28;20044;-67
2024/01/15 11:52:11;;;;;;;1.95;0.75;;;;;;;;;;5078557;28;20520;-67
2024/01/15 11:54:45;;;;;;;5.07;0.77;;;;;;;;;;5045110;28;20108;-67
2024/01/15 11:57:15;;;;;;;3.95;0.88;;;;;;;;;;5044381;28;20055;-67
2024/01/15 11:59:41;;;;;;;2.00;0.55;;;;;;;;;;5044236;28;20043;-67
2024/01/15 12:02:07;;;;;;;2.13;0.70;;;;;;;;;;5044135;28;20028;-67
2024/01/15 12:04:32;;;;;;;5.43;0.77;;;;;;;;;;5044168;28;20440;-67
2024/01/15 12:06:57;;;;;;;0.65;0.50;;;;;;;;;;5044694;28;20455;-67
2024/01/15 12:09:23;;;;;;;4.97;0.80;;;;;;;;;;5042716;28;20060;-67
2024/01/15 12:11:53;;;;;;;0.90;0.60;;;;;;;;;;5045785;28;20569;-67
2024/01/15 12:14:19;;;;;;;3.83;0.50;;;;;;;;;;5029120;28;20029;-68
2024/01/15 12:16:44;;;;;;;1.17;0.50;;;;;;;;;;5042730;28;20037;-68
2024/01/15 12:19:09;;;;;;;2.55;0.50;;;;;;;;;;5077440;28;20055;-67
2024/01/15 12:21:35;;;;;;;1.20;0.40;;;;;;;;;;5045547;28;20047;-68
2024/01/15 12:24:00;;;;;;;0.95;0.55;;;;;;;;;;5043066;28;20460;-67
2024/01/15 12:26:26;;;;;;;0.85;0.70;;;;;;;;;;5044894;28;20060;-67
2024/01/15 12:28:51;;;;;;;3.65;1.30;;;;;;;;;;5077354;28;20065;-67
2024/01/15 12:31:16;;;;;;;1.63;0.60;;;;;;;;;;5044407;28;20464;-66
2024/01/15 12:33:42;;;;;;;3.05;0.50;;;;;;;;;;5045402;28;20037;-69
2024/01/15 12:36:07;;;;;;;1.55;0.85;;;;;;;;;;5044830;28;20037;-67
2024/01/15 12:38:32;;;;;;;1.77;0.73;;;;;;;;;;5043627;28;20033;-69
2024/01/15 12:41:00;;;;;;;5.78;0.73;;;;;;;;;;5042601;28;20037;-67
2024/01/15 12:43:25;;;;;;;1.88;0.50;;;;;;;;;;5077035;28;20423;-67
2024/01/15 12:45:51;;;;;;;2.53;0.73;;;;;;;;;;5040147;28;20027;-67
2024/01/15 12:48:17;;;;;;;2.92;0.80;;;;;;;;;;5077886;28;20132;-68
2024/01/15 12:50:43;;;;;;;4.20;0.80;;;;;;;;;;5045228;28;20497;-67
2024/01/15 12:53:09;;;;;;;1.65;0.68;;;;;;;;;;5038307;28;20032;-67
2024/01/15 12:55:34;;;;;;;0.63;0.50;;;;;;;;;;5036681;28;20029;-67
2024/01/15 12:57:59;;;;;;;5.60;0.73;;;;;;;;;;5043858;28;20481;-67
2024/01/15 13:00:25;;;;;;;2.72;0.63;;;;;;;;;;5044532;28;20455;-69
2024/01/15 13:02:51;;;;;;;0.68;0.50;;;;;;;;;;5045481;28;20025;-67
2024/01/15 13:05:17;;;;;;;6.22;0.63;;;;;;;;;;5043832;28;20087;-67
2024/01/15 13:07:42;;;;;;;2.55;0.60;;;;;;;;;;5042786;28;20380;-67
2024/01/15 13:10:09;;;;;;;2.10;0.65;;;;;;;;;;5041254;28;20037;-67
2024/01/15 13:12:34;;;;;;;0.90;0.52;;;;;;;;;;5035441;28;20033;-67
2024/01/15 13:15:03;;;;;;;1.42;0.80;;;;;;;;;;5065441;28;20025;-68
2024/01/15 13:17:28;;;;;;;0.43;0.40;;;;;;;;;;5040050;28;20415;-67
2024/01/15 13:19:53;;;;;;;1.77;0.70;;;;;;;;;;5038752;28;20082;-67
2024/01/15 13:22:19;;;;;;;4.45;0.90;;;;;;;;;;5031173;28;20615;-67
2024/01/15 13:24:45;;;;;;;1.98;0.47;;;;;;;;;;5039749;28;20611;-69
2024/01/15 13:27:11;;;;;;;0.65;0.50;;;;;;;;;;5046240;28;20043;-68
2024/01/15 13:29:37;;;;;;;4.60;0.60;;;;;;;;;;5047922;28;20024;-67
2024/01/15 13:32:03;;;;;;;7.03;0.90;;;;;;;;;;5047019;28;20037;-67
2024/01/15 13:34:28;;;;;;;1.27;0.57;;;;;;;;;;5046035;28;20190;-68
2024/01/15 13:36:54;;;;;;;9.88;1.02;;;;;;;;;;5044988;28;20024;-67
2024/01/15 13:39:20;;;;;;;1.92;0.60;;;;;;;;;;5045447;28;20040;-68
2024/01/15 13:41:49;;;;;;;2.28;0.50;;;;;;;;;;5047097;28;20037;-68
2024/01/15 13:44:14;;;;;;;2.40;0.85;;;;;;;;;;5078679;28;20557;-68
2024/01/15 13:46:39;;;;;;;1.40;0.50;;;;;;;;;;5045718;28;20067;-67
2024/01/15 13:49:05;;;;;;;0.88;0.60;;;;;;;;;;5078736;28;20044;-68
2024/01/15 13:51:31;;;;;;;2.90;0.70;;;;;;;;;;5046268;28;20021;-67
2024/01/15 13:53:57;;;;;;;3.35;1.05;;;;;;;;;;5042444;28;20073;-68
2024/01/15 13:56:22;;;;;;;9.40;1.17;;;;;;;;;;5045262;28;20741;-67
2024/01/15 13:58:48;;;;;;;2.00;0.65;;;;;;;;;;5043463;28;20433;-67
2024/01/15 14:01:13;;;;;;;0.55;0.43;;;;;;;;;;5046577;28;20060;-67
2024/01/15 14:03:38;;;;;;;2.15;1.00;;;;;;;;;;5047238;28;20048;-68
2024/01/15 14:06:08;;;;;;;1.15;0.50;;;;;;;;;;5046948;28;20653;-68
2024/01/15 14:08:34;;;;;;;0.70;0.45;;;;;;;;;;5046819;28;20033;-69
2024/01/15 14:11:00;;;;;;;3.55;0.80;;;;;;;;;;5048084;28;20167;-68
2024/01/15 14:13:25;;;;;;;2.97;1.13;;;;;;;;;;5047133;28;20457;-68
2024/01/15 14:15:50;;;;;;;6.00;1.15;;;;;;;;;;5046574;28;20029;-68
2024/01/15 14:18:17;;;;;;;3.78;1.23;;;;;;;;;;5046691;28;20051;-68
2024/01/15 14:20:43;;;;;;;5.18;0.70;;;;;;;;;;5045910;28;20048;-68
2024/01/15 14:23:08;;;;;;;1.48;0.70;;;;;;;;;;5047886;28;20099;-67
2024/01/15 14:25:34;;;;;;;6.15;0.73;;;;;;;;;;5046244;28;20088;-66
2024/01/15 14:27:59;;;;;;;1.83;0.50;;;;;;;;;;5046830;28;20112;-68
2024/01/15 14:30:25;;;;;;;4.88;0.80;;;;;;;;;;5046464;28;20049;-67
2024/01/15 14:32:50;;;;;;;4.10;1.60;;;;;;;;;;5046039;28;20047;-68
2024/01/15 14:35:15;;;;;;;10.82;1.15;;;;;;;;;;5047476;28;20040;-67
2024/01/15 14:37:41;;;;;;;4.57;0.98;;;;;;;;;;5046325;28;20032;-66